KPMU/PMU METAR and TAF weather

Enter ICAO airport designator
Station Type Date Time Source
KPMU METAR 2021/06/24 05:35 UTC NOAA

KPMU 240535Z AUTO 00000KT 9SM CLR 19/18 A3007 RMK AO2


Station Type Date Time Source
KPMU Decoded METAR 2021/06/24 05:35 UTC NOAA

Station name not available
Jun 24, 2021 - 01:35 AM EDT / 2021.06.24 0535 UTC
Wind: Calm:0
Visibility: 9 mile(s):0
Sky conditions: clear
Temperature: 66 F (19 C)
Dew Point: 64 F (18 C)
Relative Humidity: 93%
Pressure (altimeter): 30.07 in. Hg (1018 hPa)
ob: KPMU 240535Z AUTO 00000KT 9SM CLR 19/18 A3007 RMK AO2
cycle: 5

Station Type Date Time Source
KPMU TAF UTC NOAA

Error!

Example: see airport list